BUY weather

Burlington Alamance Regional Airport
Burlington, North Carolina, United States

Public forecast

Using degrees Fahrenheit for public forecast. Weather courtesy of forecast.io.

METAR (pilot weather report)

Retrieved 2019/07/23 02:54 UTC (1 hour ago):

KBUY 230254Z AUTO 18004KT 10SM CLR 23/21 A2993 RMK AO2 SLP127 60003 T02330211 51009

TAF (pilot weather forecast)

Closest forecast is Piedmont Triad International Airport, 22.6 nm (41.9 km) W. Retrieved 2019/07/23 00:00 UTC (4 hours ago):

TAF KGSO 222337Z 2300/2324 22008G18KT P6SM VCTS SCT040CB BKN130 TEMPO 2300/2303 29020G35KT 1SM +TSRA BR BKN025CB OVC070 FM230400 23005KT P6SM SCT015 BKN040 BKN090 FM230900 20009KT P6SM BKN050 FM231400 36005KT 5SM -SHRA BR OVC015 FM231700 01007KT 1 1/2SM -SHRA BR OVC007